»·PEaware :: AAL2245 KMIA-KSAN

AAL2245 :: KMIA-KSAN

FLIGHT INFORMATION

Flight Status: Arrived
Operator:
American Airlines
More flights by this operator :: More flights under this callsign
Pilot: Chris Allegro (85)
Aircraft: BOEING 737-800
(B738)
More flights by this aircraft type
Origin: KMIA Miami Intl
United States
Destination: KSAN San Diego Intl-Lindbergh
United States
More flights between these airports :: More routes between these airports
Route: N0453F320 WINCO2 WINCO J73 LBV DCT SRQ Q100 LEV J86 JCT DCT ELP J2 HOGGZ LUCKI1
File this flight plan on PilotEdge
Remarks: PBN / A1B1C1D1S1S2 NAV / RNVD1E2A1 DOF / 170615 REG / N905AN EET / KZJX0044 KZHU0106 KZAB0252 KZLA0425 SEL / BHAD RMK / TCAS EQPT
Altitude:
(Current/Filed)
36,000ft
Speed:
(Current/Filed)
453kts
Departed: 15-Jun-17 07:56 AM
Arrived: 15-Jun-17 08:42 AM
Distance/Time
Traveled:
1966nm/0:46
Distance/Time
To Go:
Arrived

Flight Plot

Page will automatically refresh every two minutes.

Flight plan parsing failed; only flown route is shown


Map Options




Map Legend


Flown Route
Filed Route
Departure Airport
Arrival Airport
Navaid (VOR, NDB)
Fix

Horizontal Profiles

Position Reports

Time Latitude Longitude Heading Altitude Ground
Speed
15-Jun-17 07:57 32.743010 -112.230492 292 35975ft 396kts
15-Jun-17 07:58 32.798503 -112.345430 292 35971ft 396kts
15-Jun-17 07:59 32.853272 -112.458938 292 35956ft 395kts
15-Jun-17 08:00 32.907709 -112.572757 292 35953ft 397kts
15-Jun-17 08:01 32.946813 -112.691781 263 35956ft 379kts
15-Jun-17 08:02 32.935203 -112.815290 259 35954ft 377kts
15-Jun-17 08:03 32.919653 -112.939163 259 35954ft 377kts
15-Jun-17 08:04 32.903232 -113.061996 258 35954ft 378kts
15-Jun-17 08:05 32.886693 -113.185901 258 35955ft 378kts
15-Jun-17 08:06 32.869784 -113.309823 259 35952ft 379kts
15-Jun-17 08:07 32.852889 -113.433430 258 35951ft 379kts
15-Jun-17 08:08 32.836190 -113.552331 258 35950ft 379kts
15-Jun-17 08:09 32.821378 -113.657043 258 35948ft 380kts
15-Jun-17 08:10 32.800425 -113.804079 258 35945ft 380kts
15-Jun-17 08:11 32.782694 -113.926039 258 35942ft 380kts
15-Jun-17 08:12 32.776103 -113.985264 264 35941ft 381kts
15-Jun-17 08:13 32.779414 -114.181258 269 35937ft 386kts
15-Jun-17 08:14 32.784492 -114.308595 269 35934ft 386kts
15-Jun-17 08:15 32.801784 -114.435367 282 35932ft 394kts
15-Jun-17 08:16 32.835350 -114.559430 283 35932ft 395kts
15-Jun-17 08:17 32.868488 -114.681406 281 34853ft 378kts
15-Jun-17 08:18 32.876554 -114.802111 267 33178ft 361kts
15-Jun-17 08:19 32.874621 -114.920529 267 31565ft 353kts
15-Jun-17 08:20 32.872460 -115.036175 267 30023ft 347kts
15-Jun-17 08:21 32.869820 -115.148990 267 28520ft 341kts
15-Jun-17 08:22 32.866938 -115.261031 268 27001ft 335kts
15-Jun-17 08:23 32.861289 -115.369864 261 25507ft 332kts
15-Jun-17 08:24 32.846230 -115.474362 261 24098ft 327kts
15-Jun-17 08:25 32.828587 -115.585473 260 22568ft 340kts
15-Jun-17 08:26 32.810508 -115.695221 260 21058ft 338kts
15-Jun-17 08:27 32.792439 -115.804250 259 19553ft 332kts
15-Jun-17 08:28 32.779525 -115.911072 266 18070ft 327kts
15-Jun-17 08:29 32.773012 -116.010631 265 16713ft 323kts
15-Jun-17 08:30 32.764319 -116.127193 265 14923ft 334kts
15-Jun-17 08:31 32.755785 -116.237605 265 13320ft 333kts
15-Jun-17 08:32 32.747441 -116.346263 265 11720ft 328kts
15-Jun-17 08:33 32.739087 -116.452504 265 10504ft 313kts
15-Jun-17 08:34 32.730466 -116.551399 263 9894ft 295kts
15-Jun-17 08:35 32.721068 -116.647968 263 8697ft 292kts
15-Jun-17 08:36 32.713624 -116.740501 265 7467ft 278kts
15-Jun-17 08:37 32.704297 -116.829336 254 5965ft 266kts
15-Jun-17 08:38 32.678589 -116.909853 251 4471ft 254kts
15-Jun-17 08:39 32.682911 -116.985455 288 3676ft 213kts
15-Jun-17 08:40 32.698368 -117.044385 286 2872ft 174kts
15-Jun-17 08:41 32.712072 -117.099633 286 1733ft 166kts
15-Jun-17 08:42 32.724613 -117.148301 283 712ft 148kts
15-Jun-17 08:43 32.733394 -117.189059 285 23ft 45kts
15-Jun-17 08:44 32.734160 -117.195220 251 23ft 1kts
15-Jun-17 08:45 32.734349 -117.197171 285 23ft 6kts
15-Jun-17 08:46 32.735196 -117.200694 285 23ft 10kts
15-Jun-17 08:47 32.734691 -117.202023 125 23ft 4kts
15-Jun-17 08:48 32.734097 -117.201837 177 23ft 0kts
15-Jun-17 08:49 32.734097 -117.201837 177 23ft 0kts
15-Jun-17 08:50 32.734097 -117.201837 177 23ft 0kts
15-Jun-17 08:51 32.734097 -117.201837 177 23ft 0kts
15-Jun-17 08:52 32.734097 -117.201837 177 23ft 0kts
15-Jun-17 08:53 32.734097 -117.201837 177 23ft 0kts
15-Jun-17 08:54 32.734097 -117.201837 177 23ft 0kts
15-Jun-17 08:55 32.734097 -117.201837 177 23ft 0kts
15-Jun-17 08:56 32.734097 -117.201837 177 23ft 0kts
15-Jun-17 08:57 32.734097 -117.201837 177 23ft 0kts
15-Jun-17 08:58 32.734097 -117.201837 177 23ft 0kts

Navigation Log

Ident Type
Flight plan parsing failed, navigation log unavailable